sensor_id;sensor_type;location;lat;lon;timestamp;pressure;altitude;pressure_sealevel;temperature
61977;BMP280;45905;50.570;10.428;2023-10-13T00:02:04;97826.22;;;16.38
61977;BMP280;45905;50.570;10.428;2023-10-13T00:04:33;97815.22;;;16.38
61977;BMP280;45905;50.570;10.428;2023-10-13T00:07:04;97828.00;;;16.38
61977;BMP280;45905;50.570;10.428;2023-10-13T00:09:31;97824.09;;;16.35
61977;BMP280;45905;50.570;10.428;2023-10-13T00:12:00;97832.72;;;16.34
61977;BMP280;45905;50.570;10.428;2023-10-13T00:14:28;97837.06;;;16.34
61977;BMP280;45905;50.570;10.428;2023-10-13T00:17:05;97823.66;;;16.32
61977;BMP280;45905;50.570;10.428;2023-10-13T00:19:43;97833.09;;;16.31
61977;BMP280;45905;50.570;10.428;2023-10-13T00:22:15;97826.41;;;16.30
61977;BMP280;45905;50.570;10.428;2023-10-13T00:24:47;97830.91;;;16.28
61977;BMP280;45905;50.570;10.428;2023-10-13T00:27:20;97838.00;;;16.26
61977;BMP280;45905;50.570;10.428;2023-10-13T00:32:47;97844.72;;;16.27
61977;BMP280;45905;50.570;10.428;2023-10-13T00:35:19;97844.09;;;16.25
61977;BMP280;45905;50.570;10.428;2023-10-13T00:37:56;97840.56;;;16.26
61977;BMP280;45905;50.570;10.428;2023-10-13T00:40:26;97843.31;;;16.25
61977;BMP280;45905;50.570;10.428;2023-10-13T00:43:01;97840.56;;;16.26
61977;BMP280;45905;50.570;10.428;2023-10-13T00:45:57;97843.69;;;16.28
61977;BMP280;45905;50.570;10.428;2023-10-13T00:48:30;97840.16;;;16.29
61977;BMP280;45905;50.570;10.428;2023-10-13T00:51:06;97846.66;;;16.32
61977;BMP280;45905;50.570;10.428;2023-10-13T00:53:37;97850.81;;;16.33
61977;BMP280;45905;50.570;10.428;2023-10-13T00:56:08;97846.47;;;16.33
61977;BMP280;45905;50.570;10.428;2023-10-13T00:58:39;97842.16;;;16.34
61977;BMP280;45905;50.570;10.428;2023-10-13T01:01:06;97850.03;;;16.32
61977;BMP280;45905;50.570;10.428;2023-10-13T01:03:51;97847.28;;;16.34
61977;BMP280;45905;50.570;10.428;2023-10-13T01:06:23;97845.09;;;16.31
61977;BMP280;45905;50.570;10.428;2023-10-13T01:09:07;97849.22;;;16.32
61977;BMP280;45905;50.570;10.428;2023-10-13T01:11:50;97848.63;;;16.30
61977;BMP280;45905;50.570;10.428;2023-10-13T01:14:22;97843.31;;;16.31
61977;BMP280;45905;50.570;10.428;2023-10-13T01:16:54;97837.41;;;16.31
61977;BMP280;45905;50.570;10.428;2023-10-13T01:19:22;97835.06;;;16.29
61977;BMP280;45905;50.570;10.428;2023-10-13T01:21:55;97834.50;;;16.34
61977;BMP280;45905;50.570;10.428;2023-10-13T01:24:31;97830.34;;;16.33
61977;BMP280;45905;50.570;10.428;2023-10-13T01:27:03;97832.72;;;16.34
61977;BMP280;45905;50.570;10.428;2023-10-13T01:29:48;97820.56;;;16.36
61977;BMP280;45905;50.570;10.428;2023-10-13T01:32:21;97812.09;;;16.36
61977;BMP280;45905;50.570;10.428;2023-10-13T01:34:49;97813.44;;;16.38
61977;BMP280;45905;50.570;10.428;2023-10-13T01:37:22;97815.03;;;16.39
61977;BMP280;45905;50.570;10.428;2023-10-13T01:39:50;97813.84;;;16.35
61977;BMP280;45905;50.570;10.428;2023-10-13T01:42:18;97815.03;;;16.39
61977;BMP280;45905;50.570;10.428;2023-10-13T01:44:52;97808.34;;;16.38
61977;BMP280;45905;50.570;10.428;2023-10-13T01:47:24;97810.72;;;16.40
61977;BMP280;45905;50.570;10.428;2023-10-13T01:49:55;97811.69;;;16.39
61977;BMP280;45905;50.570;10.428;2023-10-13T01:52:25;97809.91;;;16.39
61977;BMP280;45905;50.570;10.428;2023-10-13T01:54:54;97809.91;;;16.39
61977;BMP280;45905;50.570;10.428;2023-10-13T01:57:21;97813.25;;;16.40
61977;BMP280;45905;50.570;10.428;2023-10-13T01:59:51;97804.00;;;16.39
61977;BMP280;45905;50.570;10.428;2023-10-13T02:02:18;97802.25;;;16.39
61977;BMP280;45905;50.570;10.428;2023-10-13T02:04:57;97802.44;;;16.38
61977;BMP280;45905;50.570;10.428;2023-10-13T02:07:28;97792.22;;;16.38
61977;BMP280;45905;50.570;10.428;2023-10-13T02:10:02;97788.88;;;16.37
61977;BMP280;45905;50.570;10.428;2023-10-13T02:12:33;97781.78;;;16.33
61977;BMP280;45905;50.570;10.428;2023-10-13T02:15:12;97785.13;;;16.33
61977;BMP280;45905;50.570;10.428;2023-10-13T02:17:49;97794.97;;;16.36
61977;BMP280;45905;50.570;10.428;2023-10-13T02:20:19;97799.88;;;16.38
61977;BMP280;45905;50.570;10.428;2023-10-13T02:22:50;97792.63;;;16.35
61977;BMP280;45905;50.570;10.428;2023-10-13T02:25:19;97785.31;;;16.32
61977;BMP280;45905;50.570;10.428;2023-10-13T02:28:04;97785.94;;;16.34
61977;BMP280;45905;50.570;10.428;2023-10-13T02:30:44;97788.47;;;16.34
61977;BMP280;45905;50.570;10.428;2023-10-13T02:33:13;97783.19;;;16.35
61977;BMP280;45905;50.570;10.428;2023-10-13T02:35:41;97793.41;;;16.35
61977;BMP280;45905;50.570;10.428;2023-10-13T02:38:09;97785.75;;;16.35
61977;BMP280;45905;50.570;10.428;2023-10-13T02:40:39;97781.19;;;16.37
61977;BMP280;45905;50.570;10.428;2023-10-13T02:43:07;97771.19;;;16.36
61977;BMP280;45905;50.570;10.428;2023-10-13T02:45:34;97764.31;;;16.36
61977;BMP280;45905;50.570;10.428;2023-10-13T02:48:05;97757.63;;;16.35
61977;BMP280;45905;50.570;10.428;2023-10-13T02:50:55;97758.41;;;16.36
61977;BMP280;45905;50.570;10.428;2023-10-13T02:53:23;97761.16;;;16.34
61977;BMP280;45905;50.570;10.428;2023-10-13T02:55:52;97776.50;;;16.34
61977;BMP280;45905;50.570;10.428;2023-10-13T02:58:20;97756.22;;;16.33
61977;BMP280;45905;50.570;10.428;2023-10-13T03:00:48;97769.81;;;16.33
61977;BMP280;45905;50.570;10.428;2023-10-13T03:03:16;97781.97;;;16.31
61977;BMP280;45905;50.570;10.428;2023-10-13T03:05:46;97783.56;;;16.32
61977;BMP280;45905;50.570;10.428;2023-10-13T03:08:13;97771.38;;;16.28
61977;BMP280;45905;50.570;10.428;2023-10-13T03:10:52;97774.31;;;16.31
61977;BMP280;45905;50.570;10.428;2023-10-13T03:13:21;97768.22;;;16.32
61977;BMP280;45905;50.570;10.428;2023-10-13T03:15:48;97759.94;;;16.30
61977;BMP280;45905;50.570;10.428;2023-10-13T03:18:16;97750.50;;;16.31
61977;BMP280;45905;50.570;10.428;2023-10-13T03:20:45;97753.25;;;16.29
61977;BMP280;45905;50.570;10.428;2023-10-13T03:23:17;97746.56;;;16.28
61977;BMP280;45905;50.570;10.428;2023-10-13T03:25:44;97745.81;;;16.28
61977;BMP280;45905;50.570;10.428;2023-10-13T03:28:20;97745.03;;;16.27
61977;BMP280;45905;50.570;10.428;2023-10-13T03:30:51;97743.44;;;16.26
61977;BMP280;45905;50.570;10.428;2023-10-13T03:33:20;97743.44;;;16.26
61977;BMP280;45905;50.570;10.428;2023-10-13T03:35:53;97741.69;;;16.27
61977;BMP280;45905;50.570;10.428;2023-10-13T03:38:21;97732.63;;;16.24
61977;BMP280;45905;50.570;10.428;2023-10-13T03:40:54;97734.81;;;16.27
61977;BMP280;45905;50.570;10.428;2023-10-13T03:43:35;97734.81;;;16.27
61977;BMP280;45905;50.570;10.428;2023-10-13T03:46:13;97734.00;;;16.27
61977;BMP280;45905;50.570;10.428;2023-10-13T03:48:40;97735.78;;;16.26
61977;BMP280;45905;50.570;10.428;2023-10-13T03:51:21;97734.81;;;16.27
61977;BMP280;45905;50.570;10.428;2023-10-13T03:53:49;97734.81;;;16.27
61977;BMP280;45905;50.570;10.428;2023-10-13T03:56:27;97733.03;;;16.28
61977;BMP280;45905;50.570;10.428;2023-10-13T03:59:00;97725.38;;;16.28
61977;BMP280;45905;50.570;10.428;2023-10-13T04:01:39;97708.63;;;16.25
61977;BMP280;45905;50.570;10.428;2023-10-13T04:04:25;97719.66;;;16.26
61977;BMP280;45905;50.570;10.428;2023-10-13T04:07:03;97718.88;;;16.25
61977;BMP280;45905;50.570;10.428;2023-10-13T04:09:38;97713.16;;;16.23
61977;BMP280;45905;50.570;10.428;2023-10-13T04:12:14;97716.50;;;16.24
61977;BMP280;45905;50.570;10.428;2023-10-13T04:15:00;97702.94;;;16.23
61977;BMP280;45905;50.570;10.428;2023-10-13T04:17:33;97694.28;;;16.24
61977;BMP280;45905;50.570;10.428;2023-10-13T04:20:13;97695.25;;;16.23
61977;BMP280;45905;50.570;10.428;2023-10-13T04:22:46;97706.28;;;16.24
61977;BMP280;45905;50.570;10.428;2023-10-13T04:25:26;97699.41;;;16.24
61977;BMP280;45905;50.570;10.428;2023-10-13T04:28:26;97714.72;;;16.24
61977;BMP280;45905;50.570;10.428;2023-10-13T04:31:05;97714.72;;;16.24
61977;BMP280;45905;50.570;10.428;2023-10-13T04:33:51;97692.91;;;16.22
61977;BMP280;45905;50.570;10.428;2023-10-13T04:36:23;97691.72;;;16.24
61977;BMP280;45905;50.570;10.428;2023-10-13T04:38:58;97696.66;;;16.26
61977;BMP280;45905;50.570;10.428;2023-10-13T04:41:37;97699.00;;;16.27
61977;BMP280;45905;50.570;10.428;2023-10-13T04:44:25;97693.91;;;16.27
61977;BMP280;45905;50.570;10.428;2023-10-13T04:47:10;97697.81;;;16.30
61977;BMP280;45905;50.570;10.428;2023-10-13T04:49:50;97686.81;;;16.29
61977;BMP280;45905;50.570;10.428;2023-10-13T04:52:20;97688.38;;;16.30
61977;BMP280;45905;50.570;10.428;2023-10-13T04:55:18;97676.41;;;16.31
61977;BMP280;45905;50.570;10.428;2023-10-13T04:58:15;97675.41;;;16.32
61977;BMP280;45905;50.570;10.428;2023-10-13T05:01:03;97676.19;;;16.32
61977;BMP280;45905;50.570;10.428;2023-10-13T05:03:50;97677.78;;;16.33
61977;BMP280;45905;50.570;10.428;2023-10-13T05:06:49;97677.78;;;16.33
61977;BMP280;45905;50.570;10.428;2023-10-13T05:09:34;97677.78;;;16.33
61977;BMP280;45905;50.570;10.428;2023-10-13T05:12:20;97678.75;;;16.32
61977;BMP280;45905;50.570;10.428;2023-10-13T05:15:05;97676.81;;;16.34
61977;BMP280;45905;50.570;10.428;2023-10-13T05:17:51;97663.22;;;16.34
61977;BMP280;45905;50.570;10.428;2023-10-13T05:20:37;97662.25;;;16.35
61977;BMP280;45905;50.570;10.428;2023-10-13T05:23:22;97664.81;;;16.35
61977;BMP280;45905;50.570;10.428;2023-10-13T05:26:08;97666.56;;;16.34
61977;BMP280;45905;50.570;10.428;2023-10-13T05:28:53;97661.47;;;16.34
61977;BMP280;45905;50.570;10.428;2023-10-13T05:31:54;97665.59;;;16.35
61977;BMP280;45905;50.570;10.428;2023-10-13T05:34:40;97663.22;;;16.34
61977;BMP280;45905;50.570;10.428;2023-10-13T05:37:26;97663.84;;;16.36
61977;BMP280;45905;50.570;10.428;2023-10-13T05:40:11;97671.88;;;16.39
61977;BMP280;45905;50.570;10.428;2023-10-13T05:42:57;97664.03;;;16.34
61977;BMP280;45905;50.570;10.428;2023-10-13T05:45:43;97673.44;;;16.40
61977;BMP280;45905;50.570;10.428;2023-10-13T05:48:31;97690.38;;;16.41
61977;BMP280;45905;50.570;10.428;2023-10-13T05:51:19;97683.28;;;16.43
61977;BMP280;45905;50.570;10.428;2023-10-13T05:54:05;97680.75;;;16.43
61977;BMP280;45905;50.570;10.428;2023-10-13T05:56:49;97679.56;;;16.45
61977;BMP280;45905;50.570;10.428;2023-10-13T05:59:38;97677.59;;;16.47
61977;BMP280;45905;50.570;10.428;2023-10-13T06:02:24;97665.00;;;16.46
61977;BMP280;45905;50.570;10.428;2023-10-13T06:05:12;97661.84;;;16.50
61977;BMP280;45905;50.570;10.428;2023-10-13T06:07:58;97660.09;;;16.51
61977;BMP280;45905;50.570;10.428;2023-10-13T06:10:44;97659.72;;;16.54
61977;BMP280;45905;50.570;10.428;2023-10-13T06:13:30;97654.59;;;16.54
61977;BMP280;45905;50.570;10.428;2023-10-13T06:16:17;97651.03;;;16.55
61977;BMP280;45905;50.570;10.428;2023-10-13T06:19:03;97654.38;;;16.55
61977;BMP280;45905;50.570;10.428;2023-10-13T06:21:49;97648.28;;;16.56
61977;BMP280;45905;50.570;10.428;2023-10-13T06:24:35;97648.09;;;16.58
61977;BMP280;45905;50.570;10.428;2023-10-13T06:27:20;97643.94;;;16.57
61977;BMP280;45905;50.570;10.428;2023-10-13T06:30:06;97647.09;;;16.59
61977;BMP280;45905;50.570;10.428;2023-10-13T06:32:34;97652.22;;;16.59
61977;BMP280;45905;50.570;10.428;2023-10-13T06:35:02;97651.25;;;16.60
61977;BMP280;45905;50.570;10.428;2023-10-13T06:37:34;97658.53;;;16.62
61977;BMP280;45905;50.570;10.428;2023-10-13T06:40:10;97661.88;;;16.63
61977;BMP280;45905;50.570;10.428;2023-10-13T06:42:53;97668.94;;;16.67
61977;BMP280;45905;50.570;10.428;2023-10-13T06:45:22;97663.63;;;16.69
61977;BMP280;45905;50.570;10.428;2023-10-13T06:47:55;97668.53;;;16.70
61977;BMP280;45905;50.570;10.428;2023-10-13T06:50:25;97675.81;;;16.73
61977;BMP280;45905;50.570;10.428;2023-10-13T06:52:53;97668.72;;;16.75
61977;BMP280;45905;50.570;10.428;2023-10-13T06:55:22;97662.81;;;16.75
61977;BMP280;45905;50.570;10.428;2023-10-13T06:57:56;97667.56;;;16.78
61977;BMP280;45905;50.570;10.428;2023-10-13T07:00:28;97667.75;;;16.76
61977;BMP280;45905;50.570;10.428;2023-10-13T07:03:02;97657.13;;;16.79
61977;BMP280;45905;50.570;10.428;2023-10-13T07:05:48;97656.50;;;16.83
61977;BMP280;45905;50.570;10.428;2023-10-13T07:08:16;97662.63;;;16.82
61977;BMP280;45905;50.570;10.428;2023-10-13T07:10:55;97650.22;;;16.86
61977;BMP280;45905;50.570;10.428;2023-10-13T07:13:45;97658.50;;;16.88
61977;BMP280;45905;50.570;10.428;2023-10-13T07:16:18;97664.16;;;16.90
61977;BMP280;45905;50.570;10.428;2023-10-13T07:18:56;97663.00;;;16.92
61977;BMP280;45905;50.570;10.428;2023-10-13T07:21:33;97676.56;;;16.93
61977;BMP280;45905;50.570;10.428;2023-10-13T07:24:00;97679.13;;;16.93
61977;BMP280;45905;50.570;10.428;2023-10-13T07:26:35;97666.34;;;16.93
61977;BMP280;45905;50.570;10.428;2023-10-13T07:29:11;97678.97;;;16.94
61977;BMP280;45905;50.570;10.428;2023-10-13T07:31:39;97682.13;;;16.96
61977;BMP280;45905;50.570;10.428;2023-10-13T07:34:12;97677.00;;;16.96
61977;BMP280;45905;50.570;10.428;2023-10-13T07:36:47;97669.13;;;16.98
61977;BMP280;45905;50.570;10.428;2023-10-13T07:39:16;97678.94;;;17.00
61977;BMP280;45905;50.570;10.428;2023-10-13T07:41:55;97668.72;;;17.00
61977;BMP280;45905;50.570;10.428;2023-10-13T07:44:34;97668.31;;;17.03
61977;BMP280;45905;50.570;10.428;2023-10-13T07:47:04;97660.47;;;17.05
61977;BMP280;45905;50.570;10.428;2023-10-13T07:49:37;97662.03;;;17.06
61977;BMP280;45905;50.570;10.428;2023-10-13T07:52:11;97662.41;;;17.09
61977;BMP280;45905;50.570;10.428;2023-10-13T07:55:02;97651.38;;;17.09
61977;BMP280;45905;50.570;10.428;2023-10-13T07:57:40;97658.47;;;17.13
61977;BMP280;45905;50.570;10.428;2023-10-13T08:00:26;97670.09;;;17.16
61977;BMP280;45905;50.570;10.428;2023-10-13T08:03:06;97666.31;;;17.18
61977;BMP280;45905;50.570;10.428;2023-10-13T08:05:38;97667.69;;;17.20
61977;BMP280;45905;50.570;10.428;2023-10-13T08:08:24;97653.72;;;17.23
61977;BMP280;45905;50.570;10.428;2023-10-13T08:10:53;97666.69;;;17.28
61977;BMP280;45905;50.570;10.428;2023-10-13T08:13:24;97647.94;;;17.34
61977;BMP280;45905;50.570;10.428;2023-10-13T08:15:53;97643.81;;;17.39
61977;BMP280;45905;50.570;10.428;2023-10-13T08:18:20;97651.47;;;17.45
61977;BMP280;45905;50.570;10.428;2023-10-13T08:21:03;97643.78;;;17.45
61977;BMP280;45905;50.570;10.428;2023-10-13T08:23:32;97650.63;;;17.51
61977;BMP280;45905;50.570;10.428;2023-10-13T08:26:23;97651.81;;;17.55
61977;BMP280;45905;50.570;10.428;2023-10-13T08:28:58;97657.34;;;17.58
61977;BMP280;45905;50.570;10.428;2023-10-13T08:31:52;97648.03;;;17.64
61977;BMP280;45905;50.570;10.428;2023-10-13T08:34:38;97651.19;;;17.66
61977;BMP280;45905;50.570;10.428;2023-10-13T08:37:07;97647.41;;;17.68
61977;BMP280;45905;50.570;10.428;2023-10-13T08:39:58;97641.69;;;17.73
61977;BMP280;45905;50.570;10.428;2023-10-13T08:42:56;97641.06;;;17.77
61977;BMP280;45905;50.570;10.428;2023-10-13T08:45:31;97632.78;;;17.81
61977;BMP280;45905;50.570;10.428;2023-10-13T08:47:59;97631.19;;;17.87
61977;BMP280;45905;50.570;10.428;2023-10-13T08:51:06;97636.84;;;17.95
61977;BMP280;45905;50.570;10.428;2023-10-13T08:53:41;97641.75;;;18.03
61977;BMP280;45905;50.570;10.428;2023-10-13T08:56:18;97633.22;;;18.09
61977;BMP280;45905;50.570;10.428;2023-10-13T08:59:02;97635.94;;;18.14
61977;BMP280;45905;50.570;10.428;2023-10-13T09:01:35;97637.84;;;18.24
61977;BMP280;45905;50.570;10.428;2023-10-13T09:04:21;97631.88;;;18.30
61977;BMP280;45905;50.570;10.428;2023-10-13T09:07:01;97626.50;;;18.38
61977;BMP280;45905;50.570;10.428;2023-10-13T09:12:28;97616.13;;;18.51
61977;BMP280;45905;50.570;10.428;2023-10-13T09:15:05;97617.44;;;18.59
61977;BMP280;45905;50.570;10.428;2023-10-13T09:17:50;97610.25;;;18.68
61977;BMP280;45905;50.570;10.428;2023-10-13T09:20:28;97599.16;;;18.73
61977;BMP280;45905;50.570;10.428;2023-10-13T09:23:13;97611.94;;;18.80
61977;BMP280;45905;50.570;10.428;2023-10-13T09:25:51;97606.94;;;18.85
61977;BMP280;45905;50.570;10.428;2023-10-13T09:28:28;97600.19;;;18.90
61977;BMP280;45905;50.570;10.428;2023-10-13T09:30:56;97580.59;;;18.95
61977;BMP280;45905;50.570;10.428;2023-10-13T09:33:29;97589.44;;;18.99
61977;BMP280;45905;50.570;10.428;2023-10-13T09:36:00;97587.56;;;19.06
61977;BMP280;45905;50.570;10.428;2023-10-13T09:38:28;97585.72;;;19.13
61977;BMP280;45905;50.570;10.428;2023-10-13T09:40:57;97578.94;;;19.18
61977;BMP280;45905;50.570;10.428;2023-10-13T09:43:28;97585.59;;;19.26
61977;BMP280;45905;50.570;10.428;2023-10-13T09:46:02;97576.78;;;19.33
61977;BMP280;45905;50.570;10.428;2023-10-13T09:48:36;97564.84;;;19.38
61977;BMP280;45905;50.570;10.428;2023-10-13T09:51:14;97566.78;;;19.43
61977;BMP280;45905;50.570;10.428;2023-10-13T09:53:58;97567.69;;;19.48
61977;BMP280;45905;50.570;10.428;2023-10-13T09:56:50;97562.66;;;19.53
61977;BMP280;45905;50.570;10.428;2023-10-13T09:59:31;97572.91;;;19.59
61977;BMP280;45905;50.570;10.428;2023-10-13T10:02:05;97566.13;;;19.65
61977;BMP280;45905;50.570;10.428;2023-10-13T10:04:36;97561.13;;;19.69
61977;BMP280;45905;50.570;10.428;2023-10-13T10:07:28;97560.66;;;19.72
61977;BMP280;45905;50.570;10.428;2023-10-13T10:09:57;97558.22;;;19.77
61977;BMP280;45905;50.570;10.428;2023-10-13T10:15:35;97557.81;;;19.91
61977;BMP280;45905;50.570;10.428;2023-10-13T10:18:23;97550.00;;;19.98
61977;BMP280;45905;50.570;10.428;2023-10-13T10:21:04;97545.41;;;20.00
61977;BMP280;45905;50.570;10.428;2023-10-13T10:23:38;97547.56;;;20.03
61977;BMP280;45905;50.570;10.428;2023-10-13T10:26:13;97539.63;;;20.04
61977;BMP280;45905;50.570;10.428;2023-10-13T10:28:43;97535.81;;;20.06
61977;BMP280;45905;50.570;10.428;2023-10-13T10:31:12;97530.22;;;20.09
61977;BMP280;45905;50.570;10.428;2023-10-13T10:33:45;97525.19;;;20.14
61977;BMP280;45905;50.570;10.428;2023-10-13T10:36:13;97534.59;;;20.20
61977;BMP280;45905;50.570;10.428;2023-10-13T10:38:57;97528.56;;;20.26
61977;BMP280;45905;50.570;10.428;2023-10-13T10:41:30;97530.00;;;20.33
61977;BMP280;45905;50.570;10.428;2023-10-13T10:44:14;97522.22;;;20.40
61977;BMP280;45905;50.570;10.428;2023-10-13T10:46:50;97501.53;;;20.46
61977;BMP280;45905;50.570;10.428;2023-10-13T10:49:28;97506.13;;;20.55
61977;BMP280;45905;50.570;10.428;2023-10-13T10:52:00;97497.56;;;20.66
61977;BMP280;45905;50.570;10.428;2023-10-13T10:54:34;97487.97;;;20.73
61977;BMP280;45905;50.570;10.428;2023-10-13T10:57:01;97486.25;;;20.78
61977;BMP280;45905;50.570;10.428;2023-10-13T10:59:47;97485.91;;;20.86
61977;BMP280;45905;50.570;10.428;2023-10-13T11:02:34;97486.53;;;20.93
61977;BMP280;45905;50.570;10.428;2023-10-13T11:05:02;97472.22;;;20.97
61977;BMP280;45905;50.570;10.428;2023-10-13T11:07:30;97468.19;;;21.01
61977;BMP280;45905;50.570;10.428;2023-10-13T11:10:08;97468.03;;;21.07
61977;BMP280;45905;50.570;10.428;2023-10-13T11:12:58;97466.34;;;21.12
61977;BMP280;45905;50.570;10.428;2023-10-13T11:15:44;97469.34;;;21.21
61977;BMP280;45905;50.570;10.428;2023-10-13T11:18:14;97480.06;;;21.29
61977;BMP280;45905;50.570;10.428;2023-10-13T11:20:49;97469.94;;;21.39
61977;BMP280;45905;50.570;10.428;2023-10-13T11:23:22;97455.03;;;21.41
61977;BMP280;45905;50.570;10.428;2023-10-13T11:26:00;97452.63;;;21.50
61977;BMP280;45905;50.570;10.428;2023-10-13T11:28:27;97448.34;;;21.56
61977;BMP280;45905;50.570;10.428;2023-10-13T11:30:56;97456.22;;;21.65
61977;BMP280;45905;50.570;10.428;2023-10-13T11:33:27;97440.59;;;21.72
61977;BMP280;45905;50.570;10.428;2023-10-13T11:35:57;97439.69;;;21.78
61977;BMP280;45905;50.570;10.428;2023-10-13T11:38:26;97426.41;;;21.85
61977;BMP280;45905;50.570;10.428;2023-10-13T11:41:03;97423.13;;;21.90
61977;BMP280;45905;50.570;10.428;2023-10-13T11:43:38;97424.25;;;21.94
61977;BMP280;45905;50.570;10.428;2023-10-13T11:46:13;97430.78;;;22.01
61977;BMP280;45905;50.570;10.428;2023-10-13T11:48:45;97425.00;;;22.10
61977;BMP280;45905;50.570;10.428;2023-10-13T11:51:21;97418.41;;;22.19
61977;BMP280;45905;50.570;10.428;2023-10-13T11:53:51;97412.00;;;22.21
61977;BMP280;45905;50.570;10.428;2023-10-13T11:56:20;97412.22;;;22.20
61977;BMP280;45905;50.570;10.428;2023-10-13T11:58:48;97408.66;;;22.21
61977;BMP280;45905;50.570;10.428;2023-10-13T12:01:17;97404.50;;;22.20
61977;BMP280;45905;50.570;10.428;2023-10-13T12:03:49;97399.34;;;22.20
61977;BMP280;45905;50.570;10.428;2023-10-13T12:06:36;97393.63;;;22.18
61977;BMP280;45905;50.570;10.428;2023-10-13T12:09:09;97390.59;;;22.21
61977;BMP280;45905;50.570;10.428;2023-10-13T12:11:45;97386.44;;;22.20
61977;BMP280;45905;50.570;10.428;2023-10-13T12:14:14;97385.41;;;22.21
61977;BMP280;45905;50.570;10.428;2023-10-13T12:16:49;97379.25;;;22.22
61977;BMP280;45905;50.570;10.428;2023-10-13T12:19:21;97378.22;;;22.23
61977;BMP280;45905;50.570;10.428;2023-10-13T12:21:55;97378.22;;;22.23
61977;BMP280;45905;50.570;10.428;2023-10-13T12:24:24;97372.56;;;22.26
61977;BMP280;45905;50.570;10.428;2023-10-13T12:27:05;97380.41;;;22.31
61977;BMP280;45905;50.570;10.428;2023-10-13T12:29:51;97376.31;;;22.35
61977;BMP280;45905;50.570;10.428;2023-10-13T12:32:19;97372.47;;;22.37
61977;BMP280;45905;50.570;10.428;2023-10-13T12:34:52;97366.06;;;22.39
61977;BMP280;45905;50.570;10.428;2023-10-13T12:37:33;97366.09;;;22.44
61977;BMP280;45905;50.570;10.428;2023-10-13T12:40:13;97363.59;;;22.49
61977;BMP280;45905;50.570;10.428;2023-10-13T12:43:00;97356.13;;;22.53
61977;BMP280;45905;50.570;10.428;2023-10-13T12:45:48;97341.97;;;22.55
61977;BMP280;45905;50.570;10.428;2023-10-13T12:48:36;97347.13;;;22.55
61977;BMP280;45905;50.570;10.428;2023-10-13T12:51:23;97334.00;;;22.56
61977;BMP280;45905;50.570;10.428;2023-10-13T12:53:56;97337.91;;;22.59
61977;BMP280;45905;50.570;10.428;2023-10-13T12:56:31;97344.47;;;22.66
61977;BMP280;45905;50.570;10.428;2023-10-13T12:58:59;97331.34;;;22.73
61977;BMP280;45905;50.570;10.428;2023-10-13T13:01:27;97330.91;;;22.80
61977;BMP280;45905;50.570;10.428;2023-10-13T13:04:00;97321.16;;;22.87
61977;BMP280;45905;50.570;10.428;2023-10-13T13:06:31;97331.59;;;22.97
61977;BMP280;45905;50.570;10.428;2023-10-13T13:08:59;97321.09;;;23.08
61977;BMP280;45905;50.570;10.428;2023-10-13T13:11:27;97326.84;;;23.15
61977;BMP280;45905;50.570;10.428;2023-10-13T13:13:58;97326.88;;;23.20
61977;BMP280;45905;50.570;10.428;2023-10-13T13:16:25;97317.31;;;23.20
61977;BMP280;45905;50.570;10.428;2023-10-13T13:18:58;97323.53;;;23.19
61977;BMP280;45905;50.570;10.428;2023-10-13T13:21:25;97315.78;;;23.19
61977;BMP280;45905;50.570;10.428;2023-10-13T13:23:54;97315.78;;;23.19
61977;BMP280;45905;50.570;10.428;2023-10-13T13:26:24;97316.28;;;23.21
61977;BMP280;45905;50.570;10.428;2023-10-13T13:28:51;97309.84;;;23.19
61977;BMP280;45905;50.570;10.428;2023-10-13T13:31:20;97305.94;;;23.16
61977;BMP280;45905;50.570;10.428;2023-10-13T13:33:54;97308.53;;;23.16
61977;BMP280;45905;50.570;10.428;2023-10-13T13:36:21;97310.81;;;23.13
61977;BMP280;45905;50.570;10.428;2023-10-13T13:38:50;97306.16;;;23.10
61977;BMP280;45905;50.570;10.428;2023-10-13T13:41:18;97303.50;;;23.05
61977;BMP280;45905;50.570;10.428;2023-10-13T13:43:48;97312.53;;;23.03
61977;BMP280;45905;50.570;10.428;2023-10-13T13:46:26;97305.28;;;23.00
61977;BMP280;45905;50.570;10.428;2023-10-13T13:49:00;97294.41;;;22.98
61977;BMP280;45905;50.570;10.428;2023-10-13T13:51:34;97285.09;;;22.97
61977;BMP280;45905;50.570;10.428;2023-10-13T13:54:05;97287.91;;;22.95
61977;BMP280;45905;50.570;10.428;2023-10-13T13:56:34;97282.75;;;22.95
61977;BMP280;45905;50.570;10.428;2023-10-13T13:59:06;97276.03;;;22.94
61977;BMP280;45905;50.570;10.428;2023-10-13T14:01:36;97276.81;;;22.95
61977;BMP280;45905;50.570;10.428;2023-10-13T14:04:05;97268.03;;;22.96
61977;BMP280;45905;50.570;10.428;2023-10-13T14:06:34;97267.25;;;22.95
61977;BMP280;45905;50.570;10.428;2023-10-13T14:09:02;97268.28;;;22.94
61977;BMP280;45905;50.570;10.428;2023-10-13T14:12:02;97269.31;;;22.94
61977;BMP280;45905;50.570;10.428;2023-10-13T14:14:48;97264.66;;;22.91
61977;BMP280;45905;50.570;10.428;2023-10-13T14:17:24;97258.69;;;22.90
61977;BMP280;45905;50.570;10.428;2023-10-13T14:19:57;97259.19;;;22.87
61977;BMP280;45905;50.570;10.428;2023-10-13T14:22:25;97266.16;;;22.87
61977;BMP280;45905;50.570;10.428;2023-10-13T14:24:53;97254.53;;;22.84
61977;BMP280;45905;50.570;10.428;2023-10-13T14:27:24;97247.81;;;22.83
61977;BMP280;45905;50.570;10.428;2023-10-13T14:29:53;97254.00;;;22.82
61977;BMP280;45905;50.570;10.428;2023-10-13T14:32:20;97252.97;;;22.83
61977;BMP280;45905;50.570;10.428;2023-10-13T14:34:52;97247.25;;;22.81
61977;BMP280;45905;50.570;10.428;2023-10-13T14:37:24;97244.69;;;22.81
61977;BMP280;45905;50.570;10.428;2023-10-13T14:39:56;97243.13;;;22.80
61977;BMP280;45905;50.570;10.428;2023-10-13T14:42:26;97229.97;;;22.82
61977;BMP280;45905;50.570;10.428;2023-10-13T14:44:54;97236.16;;;22.81
61977;BMP280;45905;50.570;10.428;2023-10-13T14:47:26;97232.78;;;22.80
61977;BMP280;45905;50.570;10.428;2023-10-13T14:49:54;97235.38;;;22.80
61977;BMP280;45905;50.570;10.428;2023-10-13T14:52:22;97234.34;;;22.81
61977;BMP280;45905;50.570;10.428;2023-10-13T14:54:50;97231.78;;;22.81